Time;durP1;ratioP1;P1;durP2;ratioP2;P2;SDS_P1;SDS_P2;PMS_P1;PMS_P2;Temp;Humidity;BMP_temperature;BMP_pressure;BME280_temperature;BME280_humidity;BME280_pressure;Samples;Min_cycle;Max_cycle;Signal;HPM_P1;HPM_P2
2022/10/05 00:00:37;;;;;;;2.70;2.10;;;;;;;13.56;54.26;100572.22;4495443;31;33667;-64
2022/10/05 00:03:09;;;;;;;2.95;2.35;;;;;;;13.42;54.63;100573.25;4485765;31;33150;-64
2022/10/05 00:05:37;;;;;;;4.10;2.62;;;;;;;13.26;55.46;100572.66;4498021;31;33925;-63
2022/10/05 00:08:15;;;;;;;3.53;1.80;;;;;;;13.30;54.55;100566.09;4498979;31;34036;-64
2022/10/05 00:10:44;;;;;;;3.47;2.80;;;;;;;13.21;54.23;100564.88;4482914;31;32255;-64
2022/10/05 00:13:24;;;;;;;2.03;1.70;;;;;;;13.05;55.08;100561.59;4490571;31;33421;-63
2022/10/05 00:16:06;;;;;;;6.32;2.35;;;;;;;12.97;55.74;100562.16;4490743;31;33829;-64
2022/10/05 00:18:34;;;;;;;13.05;2.72;;;;;;;13.23;54.93;100571.03;4495583;31;34148;-64
2022/10/05 00:21:11;;;;;;;4.72;2.72;;;;;;;13.27;54.50;100559.09;4498033;31;33978;-63
2022/10/05 00:23:39;;;;;;;3.50;2.33;;;;;;;13.24;54.47;100556.63;4493071;31;32685;-63
2022/10/05 00:26:15;;;;;;;2.17;1.80;;;;;;;13.08;54.91;100561.38;4487878;31;33973;-63
2022/10/05 00:28:43;;;;;;;8.10;2.78;;;;;;;13.15;54.31;100553.72;4486558;31;33941;-63
2022/10/05 00:31:20;;;;;;;5.15;2.55;;;;;;;13.09;54.63;100549.66;4497118;31;35979;-63
2022/10/05 00:33:49;;;;;;;2.83;2.05;;;;;;;13.13;54.67;100550.28;4490505;31;33700;-63
2022/10/05 00:36:17;;;;;;;5.43;2.30;;;;;;;12.59;56.20;100551.44;4498510;31;33662;-64
2022/10/05 00:38:45;;;;;;;4.70;2.92;;;;;;;12.78;55.79;100557.22;4497559;31;34299;-63
2022/10/05 00:41:20;;;;;;;4.57;1.60;;;;;;;12.73;56.31;100555.84;4487426;31;32294;-63
2022/10/05 00:43:54;;;;;;;3.50;2.53;;;;;;;12.83;55.99;100555.06;4494839;31;33241;-64
2022/10/05 00:46:29;;;;;;;6.03;2.90;;;;;;;12.59;57.28;100560.34;4496176;31;34770;-63
2022/10/05 00:49:12;;;;;;;2.92;2.17;;;;;;;12.71;57.46;100555.97;4498278;31;33771;-63
2022/10/05 00:51:42;;;;;;;2.83;2.05;;;;;;;12.96;57.19;100554.19;4498264;31;33810;-64
2022/10/05 00:54:33;;;;;;;15.48;3.33;;;;;;;12.96;57.13;100557.72;4490607;31;31826;-63
2022/10/05 00:57:28;;;;;;;2.45;1.95;;;;;;;13.09;56.46;100562.22;4480844;31;35090;-63
2022/10/05 01:00:02;;;;;;;3.37;1.70;;;;;;;12.98;56.25;100558.50;4491877;31;34097;-63
2022/10/05 01:02:36;;;;;;;1.02;0.85;;;;;;;13.07;55.93;100564.19;4493973;31;33659;-63
2022/10/05 01:05:19;;;;;;;1.33;1.15;;;;;;;13.05;55.67;100561.59;4493046;31;34476;-63
2022/10/05 01:07:53;;;;;;;2.85;1.50;;;;;;;13.12;55.46;100560.19;4484456;31;32440;-63
2022/10/05 01:10:32;;;;;;;3.55;2.35;;;;;;;13.15;55.01;100559.94;4494120;31;34234;-63
2022/10/05 01:13:03;;;;;;;3.33;1.87;;;;;;;13.11;55.05;100560.31;4484688;31;34678;-63
2022/10/05 01:16:09;;;;;;;4.12;1.75;;;;;;;13.02;55.64;100561.81;4492955;31;32557;-63
2022/10/05 01:18:52;;;;;;;2.42;0.95;;;;;;;12.95;56.44;100574.84;4427487;32;32485;-63
2022/10/05 01:21:23;;;;;;;2.40;1.52;;;;;;;12.94;56.21;100565.06;4480161;31;35205;-62
2022/10/05 01:24:16;;;;;;;3.20;1.55;;;;;;;12.97;55.65;100572.03;4492336;31;33762;-63
2022/10/05 01:27:06;;;;;;;2.05;1.58;;;;;;;12.55;56.74;100587.50;4499402;31;34586;-63
2022/10/05 01:29:48;;;;;;;2.37;2.03;;;;;;;12.49;56.75;100591.50;4496285;31;34996;-63
2022/10/05 01:32:34;;;;;;;2.30;1.40;;;;;;;12.72;56.13;100576.47;4493157;31;34193;-63
2022/10/05 01:35:14;;;;;;;;;;;;;;;12.57;56.65;100586.44;4493850;31;35032;-64
2022/10/05 01:38:03;;;;;;;1.62;1.37;;;;;;;12.73;56.47;100596.13;4499090;31;33537;-64
2022/10/05 01:40:53;;;;;;;1.45;1.23;;;;;;;12.72;56.49;100587.22;4498683;31;35383;-63
2022/10/05 01:43:23;;;;;;;1.23;1.12;;;;;;;12.66;56.32;100589.47;4489402;31;35132;-63
2022/10/05 01:46:24;;;;;;;3.87;2.03;;;;;;;12.62;56.21;100593.34;4497268;31;32104;-63
2022/10/05 01:49:10;;;;;;;2.72;2.25;;;;;;;12.64;56.14;100583.34;4497092;31;33070;-64
2022/10/05 01:52:03;;;;;;;3.10;1.65;;;;;;;12.65;56.07;100585.06;4495274;31;33623;-63
2022/10/05 01:54:36;;;;;;;3.00;1.67;;;;;;;12.62;55.83;100583.47;4497044;31;34888;-63
2022/10/05 01:57:16;;;;;;;1.77;1.25;;;;;;;12.54;56.25;100583.97;4497564;31;35305;-63
2022/10/05 02:00:05;;;;;;;3.78;1.62;;;;;;;12.44;56.43;100590.09;4499402;31;33155;-63
2022/10/05 02:02:44;;;;;;;;;;;;;;;12.51;56.30;100584.19;4498616;31;34979;-63
2022/10/05 02:05:20;;;;;;;20.15;2.00;;;;;;;12.51;56.62;100591.38;4496717;31;34427;-64
2022/10/05 02:07:53;;;;;;;2.55;1.95;;;;;;;12.62;56.02;100596.87;4492288;31;33849;-64
2022/10/05 02:10:25;;;;;;;2.10;1.55;;;;;;;12.53;56.05;100598.38;4497819;31;33144;-64
2022/10/05 02:12:57;;;;;;;2.20;1.60;;;;;;;12.27;57.19;100604.69;4495447;31;34976;-63
2022/10/05 02:15:29;;;;;;;3.70;2.37;;;;;;;12.34;57.05;100612.22;4489284;31;35124;-63
2022/10/05 02:18:04;;;;;;;10.75;2.58;;;;;;;12.51;56.48;100604.81;4491477;31;34110;-63
2022/10/05 02:20:32;;;;;;;;;;;;;;;12.42;56.78;100602.75;4483810;32;34765;-64
2022/10/05 02:23:06;;;;;;;3.72;2.40;;;;;;;12.53;56.53;100608.25;4483198;31;33942;-63
2022/10/05 02:25:36;;;;;;;4.87;2.17;;;;;;;12.50;56.26;100608.47;4494434;31;33989;-63
2022/10/05 02:28:18;;;;;;;2.50;1.58;;;;;;;12.54;56.12;100612.66;4488839;31;33556;-63
2022/10/05 02:31:07;;;;;;;4.20;3.10;;;;;;;12.59;56.02;100605.16;4483793;31;33323;-64
2022/10/05 02:33:35;;;;;;;4.37;2.70;;;;;;;12.58;56.22;100603.41;4499382;31;34930;-63
2022/10/05 02:36:11;;;;;;;4.43;1.62;;;;;;;12.47;56.35;100609.53;4486948;31;32200;-63
2022/10/05 02:39:17;;;;;;;6.25;2.37;;;;;;;12.36;56.64;100609.44;4495629;31;34904;-64
2022/10/05 02:41:52;;;;;;;2.28;1.80;;;;;;;12.47;56.13;100606.00;4483348;31;35011;-64
2022/10/05 02:44:42;;;;;;;4.60;1.60;;;;;;;12.56;55.62;100606.22;4487209;31;33660;-64
2022/10/05 02:47:20;;;;;;;2.67;1.73;;;;;;;12.50;55.62;100613.84;4482772;31;35322;-63
2022/10/05 02:50:00;;;;;;;2.28;1.95;;;;;;;12.45;56.02;100613.28;4481796;31;33659;-63
2022/10/05 02:52:40;;;;;;;2.33;1.95;;;;;;;12.48;55.97;100615.75;4495623;31;34100;-64
2022/10/05 02:55:17;;;;;;;4.87;2.05;;;;;;;12.57;55.38;100607.09;4487497;31;35010;-64
2022/10/05 02:58:13;;;;;;;2.45;1.95;;;;;;;12.61;55.00;100610.41;4478579;32;33991;-63
2022/10/05 03:00:48;;;;;;;4.15;2.50;;;;;;;12.53;55.23;100610.94;4467134;31;33619;-64
2022/10/05 03:03:38;;;;;;;3.20;2.10;;;;;;;12.52;54.86;100611.91;4478758;32;32761;-63
2022/10/05 03:06:14;;;;;;;5.30;2.35;;;;;;;12.51;54.75;100613.72;4484206;31;33681;-64
2022/10/05 03:08:57;;;;;;;3.28;1.85;;;;;;;12.50;54.70;100603.09;4494561;31;34835;-64
2022/10/05 03:12:02;;;;;;;3.80;1.73;;;;;;;12.54;54.49;100608.16;4495532;31;34907;-68
2022/10/05 03:15:08;;;;;;;2.08;1.15;;;;;;;12.48;54.62;100595.12;4493453;31;33259;-63
2022/10/05 03:17:45;;;;;;;3.35;2.35;;;;;;;12.26;55.70;100594.91;4445423;32;35047;-64
2022/10/05 03:20:48;;;;;;;3.25;2.10;;;;;;;12.46;54.98;100593.56;4488858;31;34843;-64
2022/10/05 03:23:52;;;;;;;1.98;1.77;;;;;;;12.55;55.12;100582.16;4445746;31;35097;-64
2022/10/05 03:26:32;;;;;;;3.50;2.15;;;;;;;12.63;55.03;100574.44;4482227;31;34136;-64
2022/10/05 03:29:23;;;;;;;2.72;1.33;;;;;;;12.69;54.95;100573.16;4480745;31;33594;-63
2022/10/05 03:32:22;;;;;;;3.05;2.47;;;;;;;12.73;54.63;100582.69;4481148;31;33939;-63
2022/10/05 03:34:55;;;;;;;3.60;2.05;;;;;;;12.67;54.87;100573.25;4482173;31;35143;-63
2022/10/05 03:37:42;;;;;;;3.35;2.08;;;;;;;12.61;55.22;100580.88;4477191;31;33636;-63
2022/10/05 03:40:18;;;;;;;4.65;3.30;;;;;;;12.64;54.56;100577.97;4495725;31;33294;-62
2022/10/05 03:43:03;;;;;;;4.93;2.00;;;;;;;12.68;54.01;100583.03;4495809;31;33420;-65
2022/10/05 03:45:46;;;;;;;4.28;2.28;;;;;;;12.64;54.04;100584.19;4496575;31;34370;-64
2022/10/05 03:48:20;;;;;;;1.85;1.37;;;;;;;12.73;53.39;100596.13;4492704;31;32968;-64
2022/10/05 03:51:07;;;;;;;3.05;2.03;;;;;;;12.68;54.20;100591.09;4497888;31;33724;-65
2022/10/05 03:53:41;;;;;;;1.45;1.15;;;;;;;12.67;54.49;100591.19;4483902;31;34974;-64
2022/10/05 03:56:09;;;;;;;3.33;2.30;;;;;;;12.78;54.22;100600.22;4480045;31;34867;-64
2022/10/05 03:59:17;;;;;;;4.37;2.58;;;;;;;12.82;53.75;100606.22;4498157;31;34325;-64
2022/10/05 04:01:53;;;;;;;2.62;2.00;;;;;;;12.76;53.20;100606.66;4485705;31;33818;-64
2022/10/05 04:04:30;;;;;;;4.90;2.50;;;;;;;12.76;53.22;100612.03;4481097;31;34051;-64
2022/10/05 04:06:59;;;;;;;2.83;1.67;;;;;;;12.71;53.32;100609.69;4481670;31;33603;-63
2022/10/05 04:09:36;;;;;;;2.20;1.65;;;;;;;12.63;53.44;100617.41;4484166;31;33943;-63
2022/10/05 04:12:24;;;;;;;1.85;1.40;;;;;;;12.55;53.45;100604.50;4490945;31;33572;-63
2022/10/05 04:14:56;;;;;;;1.65;1.35;;;;;;;12.31;53.54;100614.25;4496960;31;33856;-64
2022/10/05 04:17:31;;;;;;;2.47;1.35;;;;;;;12.34;53.46;100606.84;4490013;31;34586;-64
2022/10/05 04:20:05;;;;;;;0.82;0.82;;;;;;;12.18;54.02;100605.31;4494132;31;34492;-63
2022/10/05 04:22:57;;;;;;;3.45;1.65;;;;;;;12.11;54.13;100616.47;4491987;31;33745;-63
2022/10/05 04:25:39;;;;;;;2.28;1.30;;;;;;;12.05;53.89;100614.19;4497658;31;34713;-63
2022/10/05 04:28:16;;;;;;;2.28;1.48;;;;;;;12.11;53.03;100620.97;4481658;32;32466;-64
2022/10/05 04:30:46;;;;;;;0.60;0.60;;;;;;;12.08;53.22;100616.66;4497886;31;34213;-63
2022/10/05 04:33:15;;;;;;;1.52;1.10;;;;;;;12.02;53.49;100611.72;4481267;31;32758;-63
2022/10/05 04:36:04;;;;;;;3.65;1.30;;;;;;;11.98;54.33;100606.66;4484998;31;34953;-63
2022/10/05 04:38:44;;;;;;;1.05;0.90;;;;;;;12.10;54.02;100617.44;4491809;31;34422;-64
2022/10/05 04:41:23;;;;;;;2.10;1.45;;;;;;;12.15;54.14;100613.56;4481666;31;33122;-63
2022/10/05 04:44:20;;;;;;;3.12;2.10;;;;;;;12.14;54.64;100614.53;4477611;31;251817;-63
2022/10/05 04:47:13;;;;;;;1.50;1.23;;;;;;;12.24;54.63;100616.50;4497601;31;33705;-63
2022/10/05 04:49:43;;;;;;;4.00;2.00;;;;;;;12.21;54.89;100622.06;4495331;31;33725;-63
2022/10/05 04:52:34;;;;;;;2.67;1.58;;;;;;;12.24;54.34;100619.19;4497290;31;32686;-63
2022/10/05 04:55:28;;;;;;;1.83;1.15;;;;;;;12.27;54.74;100627.03;4483354;31;35029;-62
2022/10/05 04:58:08;;;;;;;3.72;2.65;;;;;;;12.44;53.61;100625.00;4482588;31;34031;-63
2022/10/05 05:01:06;;;;;;;1.95;1.70;;;;;;;12.40;53.34;100627.03;4482287;31;34899;-63
2022/10/05 05:03:49;;;;;;;2.28;1.58;;;;;;;12.33;53.84;100617.69;4484190;31;34940;-63
2022/10/05 05:06:30;;;;;;;2.53;1.33;;;;;;;12.34;54.01;100617.56;4482163;31;33618;-64
2022/10/05 05:09:23;;;;;;;1.27;0.82;;;;;;;12.37;53.90;100621.03;4481861;31;32994;-63
2022/10/05 05:11:57;;;;;;;1.80;1.20;;;;;;;12.39;54.10;100619.06;4493156;31;32385;-63
2022/10/05 05:14:37;;;;;;;3.30;1.30;;;;;;;12.38;54.61;100617.38;4490900;31;35192;-62
2022/10/05 05:17:34;;;;;;;1.37;1.02;;;;;;;12.30;54.15;100617.91;4488509;31;33658;-62
2022/10/05 05:20:14;;;;;;;1.37;1.10;;;;;;;12.43;53.75;100617.94;4484821;31;33852;-62
2022/10/05 05:23:03;;;;;;;3.10;1.15;;;;;;;12.45;54.16;100616.81;4497795;31;32373;-61
2022/10/05 05:25:42;;;;;;;3.20;1.15;;;;;;;12.47;54.38;100617.59;4483543;31;34534;-63
2022/10/05 05:28:19;;;;;;;2.95;2.65;;;;;;;12.45;54.62;100618.66;4480609;31;33982;-63
2022/10/05 05:31:01;;;;;;;1.37;1.25;;;;;;;12.64;53.96;100615.56;4491563;31;34302;-64
2022/10/05 05:34:01;;;;;;;4.12;2.15;;;;;;;12.69;53.83;100621.50;4495513;31;33699;-63
2022/10/05 05:36:38;;;;;;;5.05;1.87;;;;;;;12.74;53.50;100624.69;4487382;31;34196;-63
2022/10/05 05:39:14;;;;;;;2.72;1.55;;;;;;;12.76;54.38;100630.84;4489770;31;33686;-63
2022/10/05 05:42:16;;;;;;;2.42;1.37;;;;;;;12.87;54.11;100632.75;4496535;31;34090;-63
2022/10/05 05:44:49;;;;;;;2.17;1.55;;;;;;;12.92;53.79;100636.00;4480936;31;33469;-63
2022/10/05 05:47:25;;;;;;;2.45;1.70;;;;;;;12.98;53.69;100641.78;4497851;31;33600;-64
2022/10/05 05:50:23;;;;;;;1.23;1.12;;;;;;;13.02;54.04;100642.44;4482107;31;33527;-64
2022/10/05 05:53:00;;;;;;;2.45;1.92;;;;;;;13.17;54.20;100649.41;4475710;31;33820;-64
2022/10/05 05:55:35;;;;;;;3.80;2.15;;;;;;;13.55;52.83;100655.72;4479662;31;33528;-62
2022/10/05 05:58:21;;;;;;;2.90;1.87;;;;;;;13.56;53.12;100658.31;4480521;32;32173;-62
2022/10/05 06:00:57;;;;;;;4.05;2.37;;;;;;;13.60;53.44;100658.94;4494315;31;33451;-62
2022/10/05 06:03:49;;;;;;;1.75;1.30;;;;;;;13.97;52.03;100671.41;4480357;31;34872;-63
2022/10/05 06:06:17;;;;;;;2.25;1.33;;;;;;;14.08;51.85;100667.91;4495737;31;33565;-63
2022/10/05 06:08:52;;;;;;;2.15;1.50;;;;;;;14.06;51.98;100671.69;4495572;31;32944;-62
2022/10/05 06:11:22;;;;;;;5.72;1.95;;;;;;;13.91;52.33;100668.31;4482883;31;32607;-62
2022/10/05 06:13:50;;;;;;;8.63;2.37;;;;;;;13.88;52.68;100671.22;4481777;31;33680;-62
2022/10/05 06:16:24;;;;;;;5.70;2.03;;;;;;;13.90;53.04;100680.03;4483165;31;32252;-63
2022/10/05 06:19:03;;;;;;;1.45;0.93;;;;;;;13.92;53.18;100699.62;4490745;31;34424;-63
2022/10/05 06:21:42;;;;;;;4.93;1.58;;;;;;;13.94;53.53;100703.94;4484566;31;34848;-62
2022/10/05 06:24:42;;;;;;;2.78;1.58;;;;;;;13.94;53.76;100719.22;4480378;31;34071;-62
2022/10/05 06:27:36;;;;;;;3.03;1.80;;;;;;;13.88;54.11;100716.97;4491519;31;35257;-63
2022/10/05 06:30:14;;;;;;;3.72;2.05;;;;;;;13.80;54.28;100722.03;4494459;31;34456;-63
2022/10/05 06:32:45;;;;;;;3.60;1.98;;;;;;;13.82;54.99;100715.59;4482403;31;32822;-62
2022/10/05 06:35:29;;;;;;;1.70;1.25;;;;;;;13.84;55.12;100716.34;4491842;31;34184;-62
2022/10/05 06:38:27;;;;;;;2.25;1.58;;;;;;;14.13;54.85;100722.28;4485730;31;33919;-62
2022/10/05 06:41:03;;;;;;;1.77;1.48;;;;;;;14.25;54.95;100725.00;4482311;31;33430;-62
2022/10/05 06:43:59;;;;;;;4.10;1.42;;;;;;;14.30;54.99;100729.09;4497139;31;34791;-63
2022/10/05 06:46:53;;;;;;;3.80;2.85;;;;;;;14.46;54.78;100731.50;4498049;31;33859;-62
2022/10/05 06:49:41;;;;;;;3.87;1.67;;;;;;;14.56;54.91;100729.00;4489052;31;33654;-62
2022/10/05 06:52:29;;;;;;;2.05;1.15;;;;;;;14.67;54.55;100740.69;4498995;31;33810;-63
2022/10/05 06:55:08;;;;;;;5.12;2.60;;;;;;;14.78;54.97;100744.38;4498100;31;32720;-63
2022/10/05 06:58:19;;;;;;;2.20;1.80;;;;;;;14.94;54.19;100752.16;4490659;31;33862;-62
2022/10/05 07:00:53;;;;;;;5.57;2.67;;;;;;;14.92;53.44;100746.88;4485557;31;33977;-62
2022/10/05 07:03:40;;;;;;;5.40;2.97;;;;;;;14.90;53.47;100748.84;4487736;31;33198;-62
2022/10/05 07:06:23;;;;;;;3.37;2.08;;;;;;;15.03;53.79;100754.16;4497613;31;33439;-63
2022/10/05 07:09:01;;;;;;;5.75;1.92;;;;;;;15.09;54.77;100759.94;4485078;31;35164;-62
2022/10/05 07:11:46;;;;;;;4.70;2.42;;;;;;;15.37;54.22;100760.44;4496573;31;32763;-63
2022/10/05 07:14:37;;;;;;;3.70;2.78;;;;;;;15.19;55.46;100756.50;4497076;31;33481;-63
2022/10/05 07:17:24;;;;;;;3.55;2.17;;;;;;;15.32;55.32;100762.66;4483288;31;31869;-63
2022/10/05 07:20:21;;;;;;;5.72;2.87;;;;;;;15.57;54.83;100754.34;4498683;31;33934;-63
2022/10/05 07:22:55;;;;;;;6.15;4.12;;;;;;;15.55;54.52;100752.75;4497897;31;33876;-64
2022/10/05 07:25:30;;;;;;;6.25;3.22;;;;;;;15.41;55.34;100745.75;4496375;31;32988;-63
2022/10/05 07:28:22;;;;;;;9.68;3.62;;;;;;;15.32;55.04;100736.53;4489307;31;34038;-62
2022/10/05 07:31:08;;;;;;;7.50;4.18;;;;;;;15.56;55.70;100749.06;4501004;31;32485;-63
2022/10/05 07:33:43;;;;;;;6.35;3.35;;;;;;;15.45;55.52;100758.00;4493673;31;33685;-63
2022/10/05 07:39:04;;;;;;;8.15;2.95;;;;;;;15.61;55.16;100755.81;4500426;31;34015;-62
2022/10/05 07:41:50;;;;;;;2.70;2.12;;;;;;;15.72;54.35;100754.12;4492762;31;34009;-62
2022/10/05 07:44:47;;;;;;;3.92;2.28;;;;;;;15.86;54.37;100747.59;4483559;31;35015;-63
2022/10/05 07:47:34;;;;;;;14.13;4.25;;;;;;;15.88;54.84;100751.03;4497042;31;33309;-63
2022/10/05 07:50:19;;;;;;;8.43;4.35;;;;;;;15.45;56.55;100755.31;4497958;31;34936;-63
2022/10/05 07:52:55;;;;;;;6.22;2.90;;;;;;;15.59;56.40;100754.22;4489273;31;34271;-63
2022/10/05 07:55:32;;;;;;;6.82;2.92;;;;;;;15.48;56.88;100752.37;4498700;31;32528;-63
2022/10/05 07:58:05;;;;;;;5.55;2.97;;;;;;;15.45;56.26;100752.63;4491443;31;31851;-63
2022/10/05 08:00:51;;;;;;;5.18;2.78;;;;;;;15.77;55.92;100751.91;4471211;32;33599;-62
2022/10/05 08:03:22;;;;;;;4.25;2.97;;;;;;;16.03;55.79;100761.47;4494258;31;33049;-63
2022/10/05 08:05:49;;;;;;;8.73;4.60;;;;;;;16.13;56.04;100758.87;4498508;31;35300;-62
2022/10/05 08:08:51;;;;;;;9.82;4.20;;;;;;;16.07;55.81;100765.63;4498883;31;33379;-63
2022/10/05 08:11:30;;;;;;;6.12;4.40;;;;;;;15.96;55.91;100757.56;4498539;31;32836;-63
2022/10/05 08:14:07;;;;;;;7.50;4.12;;;;;;;15.81;57.31;100775.84;4491049;31;35029;-63
2022/10/05 08:16:36;;;;;;;7.97;4.28;;;;;;;16.12;56.25;100757.16;4492410;31;33884;-62
2022/10/05 08:19:22;;;;;;;6.32;3.42;;;;;;;15.93;57.15;100768.59;4498691;31;33300;-64
2022/10/05 08:21:54;;;;;;;7.15;4.57;;;;;;;16.22;56.58;100757.25;4493737;31;34872;-63
2022/10/05 08:24:21;;;;;;;9.50;4.30;;;;;;;16.48;56.75;100753.25;4496894;31;35188;-64
2022/10/05 08:27:05;;;;;;;12.57;4.60;;;;;;;16.47;56.84;100759.66;4497552;31;32966;-63
2022/10/05 08:29:51;;;;;;;13.55;5.72;;;;;;;16.90;55.63;100756.03;4495188;31;33267;-63
2022/10/05 08:32:25;;;;;;;10.95;5.70;;;;;;;16.84;55.47;100743.03;4493068;31;33534;-63
2022/10/05 08:35:24;;;;;;;4.70;3.35;;;;;;;16.63;55.38;100740.31;4483791;31;35220;-63
2022/10/05 08:37:52;;;;;;;5.12;2.92;;;;;;;16.39;53.79;100740.50;4480140;31;34232;-65
2022/10/05 08:40:25;;;;;;;17.35;3.22;;;;;;;16.38;55.11;100732.53;4484347;31;33625;-64
2022/10/05 08:43:08;;;;;;;6.68;3.75;;;;;;;16.41;54.63;100738.53;4490384;31;33922;-64
2022/10/05 08:46:06;;;;;;;11.82;4.95;;;;;;;16.73;54.56;100740.38;4497943;31;33390;-65
2022/10/05 08:48:56;;;;;;;6.03;2.80;;;;;;;16.57;54.98;100735.41;4485602;31;32420;-64
2022/10/05 08:51:50;;;;;;;5.57;3.70;;;;;;;16.78;53.89;100724.63;4493958;31;32524;-65
2022/10/05 08:54:18;;;;;;;10.05;5.00;;;;;;;16.71;53.54;100716.16;4485241;31;33649;-64
2022/10/05 08:56:57;;;;;;;8.15;5.40;;;;;;;16.81;53.09;100724.38;4498810;31;34041;-65
2022/10/05 09:00:00;;;;;;;11.02;6.65;;;;;;;17.01;52.73;100722.66;4496880;31;33959;-65
2022/10/05 09:02:45;;;;;;;12.07;7.12;;;;;;;16.70;53.42;100729.81;4455994;31;33248;-65
2022/10/05 09:05:13;;;;;;;9.98;4.37;;;;;;;17.18;52.29;100718.50;4497713;31;33230;-65
2022/10/05 09:08:19;;;;;;;7.47;3.47;;;;;;;17.36;52.45;100727.72;4496557;31;33873;-65
2022/10/05 09:11:08;;;;;;;10.27;5.15;;;;;;;17.80;51.71;100731.06;4496946;31;33679;-65
2022/10/05 09:14:16;;;;;;;6.50;4.53;;;;;;;17.79;51.42;100742.91;4498019;31;33112;-64
2022/10/05 09:16:51;;;;;;;11.50;6.55;;;;;;;17.53;52.80;100744.31;4493937;31;32454;-64
2022/10/05 09:19:47;;;;;;;11.45;6.10;;;;;;;17.49;52.65;100738.31;4484325;31;33154;-65
2022/10/05 09:22:23;;;;;;;7.62;4.70;;;;;;;17.85;51.59;100752.34;4495672;31;33944;-64
2022/10/05 09:24:59;;;;;;;11.38;7.00;;;;;;;17.39;52.64;100759.91;4489819;31;33409;-65
2022/10/05 09:27:35;;;;;;;10.38;4.68;;;;;;;17.67;51.84;100761.06;4494364;31;33824;-65
2022/10/05 09:30:11;;;;;;;8.18;4.30;;;;;;;17.48;51.03;100750.13;4485191;31;35167;-66
2022/10/05 09:32:57;;;;;;;5.95;3.35;;;;;;;18.09;49.78;100758.25;4488040;31;35090;-65
2022/10/05 09:36:03;;;;;;;8.27;5.28;;;;;;;17.55;51.08;100761.28;4487577;31;32526;-65
2022/10/05 09:38:39;;;;;;;7.40;4.37;;;;;;;17.18;51.74;100753.69;4498546;31;33888;-64
2022/10/05 09:41:27;;;;;;;6.82;3.97;;;;;;;17.65;51.52;100760.31;4484896;31;33265;-65
2022/10/05 09:44:10;;;;;;;8.40;4.95;;;;;;;17.97;49.40;100756.63;4490109;31;31382;-66
2022/10/05 09:46:50;;;;;;;5.82;3.55;;;;;;;18.34;49.59;100753.31;4501090;31;33576;-65
2022/10/05 09:49:55;;;;;;;8.27;4.95;;;;;;;18.51;49.59;100765.31;4492908;31;34984;-64
2022/10/05 09:52:31;;;;;;;10.90;6.50;;;;;;;18.25;50.35;100763.13;4486602;31;33808;-65
2022/10/05 09:55:20;;;;;;;10.65;6.50;;;;;;;18.15;49.72;100752.28;4493619;31;33599;-64
2022/10/05 09:58:15;;;;;;;12.27;8.02;;;;;;;17.96;50.18;100744.09;4497246;31;34589;-64
2022/10/05 10:01:05;;;;;;;8.93;6.47;;;;;;;18.05;51.02;100747.84;4494098;31;33737;-63
2022/10/05 10:03:42;;;;;;;7.22;4.05;;;;;;;18.46;49.06;100746.78;4494594;31;34000;-66
2022/10/05 10:06:17;;;;;;;8.18;3.55;;;;;;;18.63;48.84;100748.78;4487937;31;35037;-64
2022/10/05 10:08:49;;;;;;;9.63;5.28;;;;;;;18.62;49.48;100746.22;4484263;31;33051;-64
2022/10/05 10:11:40;;;;;;;10.63;6.20;;;;;;;18.00;50.50;100750.09;4484442;31;35127;-64
2022/10/05 10:14:10;;;;;;;12.60;6.12;;;;;;;18.31;50.61;100745.47;4489049;31;34016;-64
2022/10/05 10:17:09;;;;;;;7.55;4.03;;;;;;;18.37;50.75;100743.03;4490789;31;33647;-65
2022/10/05 10:20:14;;;;;;;8.95;4.80;;;;;;;18.74;49.13;100744.22;4470777;31;33604;-64
2022/10/05 10:22:49;;;;;;;6.85;4.45;;;;;;;18.48;50.60;100746.63;4487999;31;33841;-64
2022/10/05 10:25:48;;;;;;;9.32;4.60;;;;;;;18.33;49.09;100744.34;4493533;31;33754;-64
2022/10/05 10:28:42;;;;;;;7.97;5.32;;;;;;;18.29;49.63;100739.31;4498025;31;33982;-64
2022/10/05 10:31:25;;;;;;;6.30;4.03;;;;;;;18.73;49.41;100739.81;4481569;31;33417;-63
2022/10/05 10:34:23;;;;;;;7.53;4.95;;;;;;;18.55;48.72;100743.19;4494489;31;33899;-64
2022/10/05 10:37:20;;;;;;;9.20;4.90;;;;;;;18.43;50.13;100751.63;4493452;31;32759;-65
2022/10/05 10:40:03;;;;;;;8.25;4.85;;;;;;;18.39;51.19;100738.34;4473451;31;33896;-64
2022/10/05 10:42:42;;;;;;;11.60;5.10;;;;;;;18.23;49.85;100746.16;4486415;31;34529;-64
2022/10/05 10:45:16;;;;;;;9.38;4.97;;;;;;;18.15;49.91;100751.41;4482219;31;32536;-64
2022/10/05 10:47:51;;;;;;;5.07;3.70;;;;;;;18.22;50.30;100752.56;4489627;31;35622;-64
2022/10/05 10:50:38;;;;;;;5.95;3.58;;;;;;;18.73;49.47;100746.09;4495762;31;32319;-64
2022/10/05 10:53:06;;;;;;;7.85;5.35;;;;;;;18.85;48.57;100752.22;4495569;31;33354;-63
2022/10/05 10:55:46;;;;;;;8.18;4.50;;;;;;;18.80;49.06;100746.38;4498194;31;33618;-63
2022/10/05 10:58:42;;;;;;;8.50;3.80;;;;;;;19.08;49.27;100750.06;4491222;31;35289;-62
2022/10/05 11:01:33;;;;;;;7.45;3.25;;;;;;;18.33;50.68;100752.47;4492284;31;31691;-63
2022/10/05 11:04:20;;;;;;;13.70;5.43;;;;;;;18.55;50.22;100736.91;4487494;31;34443;-63
2022/10/05 11:07:18;;;;;;;8.05;4.15;;;;;;;18.44;50.13;100739.78;4495902;31;33964;-65
2022/10/05 11:09:58;;;;;;;9.27;5.25;;;;;;;18.49;51.45;100737.47;4494219;31;33984;-63
2022/10/05 11:12:34;;;;;;;8.77;5.28;;;;;;;18.77;50.66;100742.09;4487618;31;34942;-65
2022/10/05 11:15:46;;;;;;;6.75;3.58;;;;;;;18.72;50.74;100738.06;4492607;31;33447;-63
2022/10/05 11:18:25;;;;;;;7.82;5.15;;;;;;;19.20;49.12;100739.91;4492513;31;35106;-63
2022/10/05 11:21:08;;;;;;;7.93;5.00;;;;;;;18.77;49.36;100730.38;4481435;31;34067;-64
2022/10/05 11:23:55;;;;;;;9.23;5.03;;;;;;;18.47;50.51;100734.06;4476883;31;32686;-63
2022/10/05 11:26:45;;;;;;;8.57;4.60;;;;;;;18.95;49.87;100723.22;4482678;31;31887;-63
2022/10/05 11:29:32;;;;;;;6.28;3.58;;;;;;;18.42;49.90;100734.47;4483412;31;33329;-62
2022/10/05 11:32:18;;;;;;;6.22;3.12;;;;;;;18.89;49.45;100722.97;4479315;31;32767;-63
2022/10/05 11:35:07;;;;;;;4.30;2.20;;;;;;;19.18;47.87;100721.03;4483360;31;32682;-63
2022/10/05 11:37:57;;;;;;;8.18;2.75;;;;;;;19.01;49.11;100722.66;4490665;31;33713;-65
2022/10/05 11:40:28;;;;;;;5.03;2.80;;;;;;;18.68;48.91;100714.94;4488322;31;33861;-62
2022/10/05 11:43:21;;;;;;;6.75;3.30;;;;;;;18.75;47.64;100716.97;4494914;31;34070;-62
2022/10/05 11:46:16;;;;;;;8.70;2.80;;;;;;;19.15;47.38;100710.47;4494732;31;34691;-63
2022/10/05 11:49:03;;;;;;;9.02;3.47;;;;;;;19.16;46.78;100705.91;4492877;31;31768;-63
2022/10/05 11:51:37;;;;;;;5.12;2.83;;;;;;;19.76;46.64;100692.84;4483119;32;33645;-62
2022/10/05 11:54:08;;;;;;;6.80;3.80;;;;;;;19.51;44.99;100694.34;4482951;31;35815;-63
2022/10/05 11:57:14;;;;;;;11.85;4.30;;;;;;;19.17;45.74;100696.78;4490168;31;32953;-63
2022/10/05 11:59:48;;;;;;;6.00;3.37;;;;;;;19.38;45.95;100686.53;4462500;31;33583;-62
2022/10/05 12:02:51;;;;;;;8.20;3.37;;;;;;;19.49;46.04;100690.94;4493605;31;34254;-65
2022/10/05 12:05:34;;;;;;;4.60;2.87;;;;;;;19.68;45.57;100687.34;4490498;31;33752;-65
2022/10/05 12:08:14;;;;;;;7.05;2.85;;;;;;;19.64;44.75;100677.75;4498912;31;35373;-63
2022/10/05 12:11:14;;;;;;;4.75;2.35;;;;;;;19.88;44.58;100672.62;4491716;31;34881;-63
2022/10/05 12:13:56;;;;;;;6.32;2.55;;;;;;;19.89;44.98;100677.03;4467237;31;33632;-63
2022/10/05 12:16:33;;;;;;;5.85;2.80;;;;;;;19.54;44.91;100677.75;4495884;31;34142;-63
2022/10/05 12:19:12;;;;;;;3.92;2.25;;;;;;;19.21;43.60;100680.03;4488786;31;34020;-63
2022/10/05 12:21:44;;;;;;;4.00;2.03;;;;;;;19.67;42.88;100678.31;4493655;31;33602;-64
2022/10/05 12:24:19;;;;;;;5.65;2.75;;;;;;;19.53;43.82;100682.34;4485361;31;33910;-65
2022/10/05 12:27:04;;;;;;;4.72;2.50;;;;;;;19.58;43.07;100679.16;4479425;31;32389;-64
2022/10/05 12:29:38;;;;;;;6.15;2.53;;;;;;;19.54;42.92;100680.47;4492733;31;35016;-64
2022/10/05 12:32:18;;;;;;;2.97;1.58;;;;;;;19.97;42.41;100665.44;4492143;31;33396;-64
2022/10/05 12:34:57;;;;;;;5.78;2.10;;;;;;;20.45;40.91;100672.38;4483053;31;35088;-64
2022/10/05 12:37:47;;;;;;;6.20;2.45;;;;;;;19.88;42.23;100674.50;4486695;31;34023;-65